Irene — MCQW — position and weather

sailwx.info

Track history (hours):
 
Tides and Currents Weather Stations Pressure Air Temp Water Temp Dewpoint Dewpoint Depression Visibility Wind Speed Wind Dir Waves Ship Positions

Irene

Last reported at 2017-Jun-23 15:55 UTC. Time now 2017-Jun-26 12:01 UTC.
Position N 56°25' W 005°29'.

Length 34 m.

Type: Sailing vessel. MMSI: 235085663.

Date/timePositionNaut miles runAvg speedWind from/ knotsBaromVisibWave heightAir tempDewpointWater temp
2017-Jun-23 15:55N 56°25' W 005°29'2 3.9
2017-Jun-23 15:29N 56°26' W 005°32'2 4.6
2017-Jun-23 14:59N 56°27' W 005°36'2 0.0
2017-Jun-21 14:09N 56°24' W 005°36'3 0.6
2017-Jun-21 09:27N 56°23' W 005°32'2 0.1
2017-Jun-19 16:21N 56°25' W 005°29'0 0.0
2017-Jun-19 16:00N 56°25' W 005°29'0 0.0
2017-Jun-19 14:45N 56°25' W 005°29'  
2017-Jun-15 12:13N 56°27' W 005°38'1 2.4
2017-Jun-15 11:40N 56°26' W 005°37'2 4.0
2017-Jun-15 11:17N 56°26' W 005°34'1 3.8
2017-Jun-15 11:00N 56°26' W 005°32'  
Track history (hours):
 
Tides and Currents Weather Stations Pressure Air Temp Water Temp Dewpoint Dewpoint Depression Visibility Wind Speed Wind Dir Waves Ship Positions

Irene

Last reported at 2017-Jun-23 15:55 UTC. Time now 2017-Jun-26 12:01 UTC.
Position N 56°25' W 005°29'.

Length 34 m.

Type: Sailing vessel. MMSI: 235085663.

Date/timePositionNaut miles runAvg speedWind from/ knotsBaromVisibWave heightAir tempDewpointWater temp
2017-Jun-23 15:55N 56°25' W 005°29'2 3.9
2017-Jun-23 15:29N 56°26' W 005°32'2 4.6
2017-Jun-23 14:59N 56°27' W 005°36'2 0.0
2017-Jun-21 14:09N 56°24' W 005°36'3 0.6
2017-Jun-21 09:27N 56°23' W 005°32'2 0.1
2017-Jun-19 16:21N 56°25' W 005°29'0 0.0
2017-Jun-19 16:00N 56°25' W 005°29'0 0.0
2017-Jun-19 14:45N 56°25' W 005°29'  
2017-Jun-15 12:13N 56°27' W 005°38'1 2.4
2017-Jun-15 11:40N 56°26' W 005°37'2 4.0
2017-Jun-15 11:17N 56°26' W 005°34'1 3.8
2017-Jun-15 11:00N 56°26' W 005°32'  

Dump ship's entire track history